Time;durP1;ratioP1;P1;durP2;ratioP2;P2;SDS_P1;SDS_P2;PMS_P1;PMS_P2;Temp;Humidity;BMP_temperature;BMP_pressure;BME280_temperature;BME280_humidity;BME280_pressure;Samples;Min_cycle;Max_cycle;Signal;HPM_P1;HPM_P2
2022/07/08 00:01:45;;;;;;;3.10;1.97;;;18.00;58.00;;;;;;5051782;28;20457;-50
2022/07/08 00:04:12;;;;;;;7.33;1.70;;;18.10;58.50;;;;;;5052032;28;20504;-49
2022/07/08 00:06:39;;;;;;;4.17;1.80;;;18.10;58.60;;;;;;5065325;28;20465;-49
2022/07/08 00:09:05;;;;;;;4.37;1.50;;;18.00;57.90;;;;;;5047504;28;20466;-49
2022/07/08 00:11:32;;;;;;;4.87;2.00;;;18.00;58.30;;;;;;5051913;28;21024;-50
2022/07/08 00:13:59;;;;;;;4.17;2.30;;;18.00;58.50;;;;;;5046049;28;20464;-49
2022/07/08 00:16:26;;;;;;;5.00;1.50;;;17.90;58.60;;;;;;5064294;28;20457;-49
2022/07/08 00:18:53;;;;;;;12.10;2.10;;;17.90;58.70;;;;;;5060187;28;20490;-49
2022/07/08 00:21:20;;;;;;;5.50;2.10;;;17.80;58.50;;;;;;5047560;28;20912;-49
2022/07/08 00:23:47;;;;;;;6.77;1.50;;;17.90;58.70;;;;;;5060412;28;20460;-50
2022/07/08 00:26:14;;;;;;;4.93;1.53;;;17.90;59.00;;;;;;5061152;28;20458;-49
2022/07/08 00:28:41;;;;;;;6.70;2.30;;;17.90;58.90;;;;;;5058326;28;20462;-49
2022/07/08 00:31:07;;;;;;;3.73;1.60;;;17.90;59.00;;;;;;5048751;28;20449;-49
2022/07/08 00:33:34;;;;;;;5.30;1.73;;;17.90;58.70;;;;;;5064928;28;20457;-50
2022/07/08 00:36:01;;;;;;;3.67;1.60;;;17.90;59.00;;;;;;5063285;28;20903;-50
2022/07/08 00:38:28;;;;;;;4.23;1.63;;;17.90;59.20;;;;;;5063534;28;20485;-50
2022/07/08 00:40:55;;;;;;;4.50;1.90;;;17.90;59.00;;;;;;5044416;28;20516;-50
2022/07/08 00:43:40;;;;;;;4.47;2.10;;;17.90;59.20;;;;;;5045465;28;20839;-49
2022/07/08 00:46:07;;;;;;;5.97;1.70;;;17.90;59.40;;;;;;5062500;28;20529;-49
2022/07/08 00:48:36;;;;;;;5.63;1.90;;;17.90;59.90;;;;;;5059974;28;20457;-49
2022/07/08 00:51:05;;;;;;;3.93;1.83;;;17.90;60.00;;;;;;5051791;28;20458;-49
2022/07/08 00:53:34;;;;;;;3.03;1.90;;;17.80;60.20;;;;;;5047528;28;20557;-49
2022/07/08 00:56:02;;;;;;;8.53;2.03;;;17.80;60.30;;;;;;5058978;28;20475;-49
2022/07/08 00:58:30;;;;;;;5.13;2.30;;;17.80;60.40;;;;;;5063783;28;21002;-50
2022/07/08 01:00:57;;;;;;;7.77;2.73;;;17.80;60.40;;;;;;5059544;28;21032;-50
2022/07/08 01:03:24;;;;;;;3.10;1.70;;;17.80;60.70;;;;;;5065280;28;20460;-47
2022/07/08 01:05:51;;;;;;;4.97;2.10;;;17.80;60.80;;;;;;5048410;28;20450;-46
2022/07/08 01:08:18;;;;;;;5.70;2.73;;;17.80;60.40;;;;;;5065348;28;20460;-47
2022/07/08 01:10:45;;;;;;;4.30;1.90;;;17.80;60.40;;;;;;5045923;28;20972;-46
2022/07/08 01:13:12;;;;;;;3.33;1.73;;;17.90;60.40;;;;;;5056592;28;20518;-47
2022/07/08 01:15:39;;;;;;;3.60;1.50;;;17.80;60.70;;;;;;5060426;28;21008;-46
2022/07/08 01:18:06;;;;;;;2.87;1.73;;;17.80;60.60;;;;;;5050034;28;20486;-46
2022/07/08 01:20:33;;;;;;;5.17;1.90;;;17.80;60.60;;;;;;5059732;28;20458;-46
2022/07/08 01:23:00;;;;;;;5.70;2.10;;;17.80;61.10;;;;;;5063953;28;20454;-46
2022/07/08 01:25:27;;;;;;;3.40;1.77;;;17.80;60.90;;;;;;5058096;28;20457;-46
2022/07/08 01:27:54;;;;;;;3.03;1.57;;;17.80;60.90;;;;;;5062200;28;20768;-46
2022/07/08 01:30:21;;;;;;;5.07;1.80;;;17.80;61.00;;;;;;5061707;28;20462;-47
2022/07/08 01:32:50;;;;;;;3.73;1.50;;;17.80;60.50;;;;;;5064011;28;20478;-46
2022/07/08 01:35:17;;;;;;;2.93;1.70;;;17.80;60.50;;;;;;5049936;28;20524;-46
2022/07/08 01:37:44;;;;;;;5.53;1.73;;;17.70;60.90;;;;;;5046042;28;20455;-46
2022/07/08 01:40:11;;;;;;;5.90;2.00;;;17.70;61.10;;;;;;5048917;28;20468;-46
2022/07/08 01:42:38;;;;;;;3.27;2.23;;;17.70;61.10;;;;;;5058509;28;20487;-46
2022/07/08 01:45:06;;;;;;;6.43;2.37;;;17.70;61.20;;;;;;5046891;28;20453;-47
2022/07/08 01:47:32;;;;;;;2.87;1.40;;;17.70;61.20;;;;;;5044491;28;20730;-47
2022/07/08 01:49:59;;;;;;;4.60;2.27;;;17.70;61.40;;;;;;5062143;28;20466;-47
2022/07/08 01:52:26;;;;;;;2.80;1.83;;;17.70;61.40;;;;;;5046244;28;20584;-46
2022/07/08 01:54:53;;;;;;;3.90;1.67;;;17.70;61.30;;;;;;5060685;28;20808;-47
2022/07/08 01:57:21;;;;;;;6.33;2.10;;;17.60;61.40;;;;;;5048796;28;20580;-46
2022/07/08 01:59:50;;;;;;;5.00;1.73;;;17.60;61.50;;;;;;5056158;28;20573;-47
2022/07/08 02:02:21;;;;;;;6.07;2.93;;;17.60;61.20;;;;;;5060824;28;20460;-46
2022/07/08 02:04:48;;;;;;;5.30;2.07;;;17.60;61.20;;;;;;5063941;28;20446;-46
2022/07/08 02:07:15;;;;;;;4.67;1.73;;;17.60;61.30;;;;;;5061587;28;20469;-47
2022/07/08 02:09:42;;;;;;;2.80;1.80;;;17.50;61.30;;;;;;5045189;28;21091;-47
2022/07/08 02:12:19;;;;;;;4.40;1.90;;;17.60;61.00;;;;;;5042982;28;20457;-48
2022/07/08 02:14:55;;;;;;;4.47;1.90;;;17.50;61.10;;;;;;5062420;28;20481;-46
2022/07/08 02:17:23;;;;;;;11.00;2.27;;;17.40;61.40;;;;;;5055142;28;20480;-48
2022/07/08 02:19:50;;;;;;;4.73;1.90;;;17.40;61.50;;;;;;5043383;28;20493;-47
2022/07/08 02:22:17;;;;;;;4.53;1.80;;;17.40;61.50;;;;;;5050256;28;20802;-46
2022/07/08 02:24:44;;;;;;;4.83;1.83;;;17.30;61.40;;;;;;5059470;28;20464;-46
2022/07/08 02:27:11;;;;;;;6.93;1.57;;;17.30;61.60;;;;;;5059277;28;20831;-46
2022/07/08 02:29:38;;;;;;;4.00;1.40;;;17.30;61.90;;;;;;5061478;28;20459;-45
2022/07/08 02:32:05;;;;;;;2.10;1.40;;;17.30;61.70;;;;;;5040249;28;20496;-46
2022/07/08 02:34:32;;;;;;;3.47;1.67;;;17.30;61.80;;;;;;5057893;28;20508;-46
2022/07/08 02:36:59;;;;;;;4.20;2.27;;;17.30;61.70;;;;;;5063355;28;20955;-46
2022/07/08 02:39:26;;;;;;;3.70;1.87;;;17.30;61.80;;;;;;5046586;28;20525;-46
2022/07/08 02:41:53;;;;;;;3.97;2.03;;;17.30;61.90;;;;;;5058545;28;20453;-46
2022/07/08 02:44:19;;;;;;;2.50;1.87;;;17.20;62.00;;;;;;5047034;28;20493;-46
2022/07/08 02:46:47;;;;;;;1.70;1.47;;;17.20;61.90;;;;;;5065789;28;20440;-46
2022/07/08 02:49:14;;;;;;;3.37;1.43;;;17.10;62.20;;;;;;5061971;28;20892;-46
2022/07/08 02:51:41;;;;;;;3.10;1.40;;;17.10;62.30;;;;;;5046239;28;20450;-48
2022/07/08 02:54:09;;;;;;;8.30;2.00;;;17.10;62.50;;;;;;5054584;28;20460;-46
2022/07/08 02:56:35;;;;;;;2.57;1.97;;;17.10;62.30;;;;;;5047270;28;20476;-46
2022/07/08 02:59:04;;;;;;;4.50;1.50;;;17.10;62.60;;;;;;5056341;28;20505;-46
2022/07/08 03:01:31;;;;;;;2.00;1.47;;;17.00;62.50;;;;;;5064363;28;20477;-48
2022/07/08 03:03:58;;;;;;;4.37;1.60;;;17.00;63.10;;;;;;5062183;28;20465;-46
2022/07/08 03:06:25;;;;;;;2.93;2.03;;;16.90;63.00;;;;;;5059961;28;20454;-46
2022/07/08 03:08:52;;;;;;;3.20;1.80;;;16.90;62.70;;;;;;5047333;28;20456;-46
2022/07/08 03:11:18;;;;;;;4.93;1.70;;;16.90;62.70;;;;;;5051884;28;20473;-46
2022/07/08 03:13:45;;;;;;;5.43;1.57;;;16.90;62.60;;;;;;5061359;28;21039;-46
2022/07/08 03:16:12;;;;;;;4.00;1.80;;;16.80;62.60;;;;;;5046893;28;20477;-46
2022/07/08 03:18:39;;;;;;;4.30;1.80;;;16.80;63.00;;;;;;5056429;28;20907;-46
2022/07/08 03:21:07;;;;;;;6.87;1.60;;;16.70;63.20;;;;;;5057595;28;20836;-46
2022/07/08 03:23:35;;;;;;;9.10;1.67;;;16.70;63.40;;;;;;5054833;28;20950;-46
2022/07/08 03:26:02;;;;;;;4.10;2.00;;;16.60;63.30;;;;;;5059660;28;20830;-46
2022/07/08 03:28:29;;;;;;;10.67;2.37;;;16.60;63.50;;;;;;5062205;28;20530;-46
2022/07/08 03:30:57;;;;;;;4.97;1.80;;;16.50;63.50;;;;;;5059922;28;20454;-46
2022/07/08 03:33:24;;;;;;;4.50;1.83;;;16.40;63.90;;;;;;5062235;28;21115;-46
2022/07/08 03:35:50;;;;;;;4.70;2.07;;;16.40;64.00;;;;;;5056316;28;20684;-46
2022/07/08 03:38:17;;;;;;;5.60;1.70;;;16.40;63.80;;;;;;5041897;28;20446;-46
2022/07/08 03:43:30;;;;;;;4.13;1.70;;;16.30;64.70;;;;;;5066741;28;20444;-47
2022/07/08 03:45:56;;;;;;;8.33;1.93;;;16.20;64.60;;;;;;5041468;28;20490;-47
2022/07/08 03:48:30;;;;;;;4.30;2.13;;;16.20;64.80;;;;;;5060476;28;20442;-47
2022/07/08 03:50:58;;;;;;;4.77;1.47;;;16.20;64.80;;;;;;5056126;28;20472;-47
2022/07/08 03:53:25;;;;;;;3.73;1.90;;;16.10;64.90;;;;;;5049652;28;20541;-47
2022/07/08 03:55:54;;;;;;;2.90;2.20;;;16.10;64.90;;;;;;5058052;28;20459;-48
2022/07/08 03:58:21;;;;;;;3.80;1.90;;;16.10;65.20;;;;;;5047118;28;20895;-47
2022/07/08 04:00:48;;;;;;;4.10;2.03;;;16.00;65.50;;;;;;5057203;28;20498;-47
2022/07/08 04:03:15;;;;;;;4.60;2.00;;;16.00;65.60;;;;;;5041862;28;20462;-47
2022/07/08 04:05:42;;;;;;;7.10;2.37;;;16.00;65.50;;;;;;5063249;28;20459;-47
2022/07/08 04:08:09;;;;;;;5.90;2.30;;;16.00;65.90;;;;;;5062190;28;20450;-47
2022/07/08 04:10:36;;;;;;;7.20;2.03;;;16.00;65.80;;;;;;5057124;28;20453;-47
2022/07/08 04:13:03;;;;;;;4.43;2.10;;;15.90;66.00;;;;;;5056704;28;20548;-46
2022/07/08 04:15:29;;;;;;;4.97;1.70;;;15.90;66.30;;;;;;5059011;28;20466;-46
2022/07/08 04:17:56;;;;;;;4.73;2.00;;;15.90;66.60;;;;;;5060690;28;20520;-47
2022/07/08 04:20:23;;;;;;;3.77;1.77;;;15.90;66.80;;;;;;5057942;28;20559;-47
2022/07/08 04:22:50;;;;;;;4.83;2.10;;;15.90;67.00;;;;;;5044376;28;20462;-47
2022/07/08 04:25:17;;;;;;;3.00;2.50;;;15.90;66.90;;;;;;5042200;28;20840;-47
2022/07/08 04:27:44;;;;;;;2.53;2.00;;;16.00;66.80;;;;;;5060305;28;20450;-47
2022/07/08 04:30:11;;;;;;;6.73;2.17;;;16.00;66.70;;;;;;5060823;28;20472;-47
2022/07/08 04:32:37;;;;;;;6.83;2.10;;;16.00;66.90;;;;;;5061550;28;20455;-47
2022/07/08 04:35:05;;;;;;;11.37;2.47;;;16.00;67.20;;;;;;5062267;28;20472;-47
2022/07/08 04:37:31;;;;;;;4.27;2.93;;;16.10;67.10;;;;;;5046665;28;20888;-47
2022/07/08 04:39:58;;;;;;;4.30;2.30;;;16.20;66.70;;;;;;5049781;28;20505;-47
2022/07/08 04:42:25;;;;;;;9.20;2.40;;;16.20;66.80;;;;;;5064517;28;20458;-47
2022/07/08 04:44:52;;;;;;;3.50;2.60;;;16.30;66.80;;;;;;5048064;28;20485;-47
2022/07/08 04:47:19;;;;;;;4.17;2.10;;;16.30;66.90;;;;;;5047149;28;20853;-47
2022/07/08 04:49:46;;;;;;;4.60;2.17;;;16.30;66.90;;;;;;5062061;28;20466;-47
2022/07/08 04:52:13;;;;;;;4.17;2.47;;;16.30;67.00;;;;;;5064231;28;20474;-47
2022/07/08 04:54:39;;;;;;;6.20;2.60;;;16.30;67.00;;;;;;5050869;28;20455;-47
2022/07/08 04:57:07;;;;;;;5.10;1.80;;;16.30;67.00;;;;;;5060594;28;20987;-47
2022/07/08 04:59:34;;;;;;;4.40;2.37;;;16.40;67.00;;;;;;5064327;28;20489;-46
2022/07/08 05:02:01;;;;;;;2.60;1.70;;;16.40;66.70;;;;;;5061730;28;20454;-47
2022/07/08 05:04:28;;;;;;;7.83;2.70;;;16.50;66.60;;;;;;5059838;28;20515;-47
2022/07/08 05:06:55;;;;;;;3.80;2.20;;;16.60;66.30;;;;;;5039475;28;20539;-47
2022/07/08 05:09:22;;;;;;;2.60;2.13;;;16.60;66.20;;;;;;5061456;28;20462;-47
2022/07/08 05:11:49;;;;;;;5.30;2.20;;;16.60;66.20;;;;;;5046889;28;20864;-47
2022/07/08 05:14:15;;;;;;;5.20;2.03;;;16.60;66.10;;;;;;5061823;28;20445;-47
2022/07/08 05:16:43;;;;;;;3.80;1.93;;;16.60;66.20;;;;;;5062849;28;20473;-47
2022/07/08 05:19:10;;;;;;;4.43;1.93;;;16.70;66.20;;;;;;5047718;28;21045;-47
2022/07/08 05:21:37;;;;;;;5.63;2.50;;;16.70;65.70;;;;;;5058608;28;20462;-47
2022/07/08 05:24:05;;;;;;;5.80;2.43;;;16.70;65.30;;;;;;5061093;28;20496;-47
2022/07/08 05:26:32;;;;;;;7.37;2.40;;;16.70;65.30;;;;;;5061831;28;20454;-47
2022/07/08 05:29:00;;;;;;;4.70;2.20;;;16.70;65.60;;;;;;5060936;28;20494;-47
2022/07/08 05:31:27;;;;;;;6.87;2.53;;;16.60;65.90;;;;;;5044289;28;20444;-47
2022/07/08 05:33:54;;;;;;;2.57;2.07;;;16.70;65.80;;;;;;5064005;28;20467;-47
2022/07/08 05:36:22;;;;;;;6.73;2.87;;;16.70;65.50;;;;;;5059139;28;20454;-47
2022/07/08 05:38:48;;;;;;;5.40;1.70;;;16.80;64.90;;;;;;5052517;28;20480;-47
2022/07/08 05:41:16;;;;;;;4.07;1.67;;;16.80;64.10;;;;;;5058804;28;20457;-47
2022/07/08 05:43:43;;;;;;;4.33;2.13;;;16.80;63.80;;;;;;5046403;28;20542;-47
2022/07/08 05:46:09;;;;;;;2.40;1.97;;;16.90;63.40;;;;;;5058034;28;20466;-47
2022/07/08 05:48:36;;;;;;;2.73;1.60;;;16.90;63.30;;;;;;5048722;28;20961;-46
2022/07/08 05:51:03;;;;;;;4.37;1.70;;;17.00;62.30;;;;;;5044545;28;20471;-47
2022/07/08 05:53:30;;;;;;;2.73;1.83;;;17.10;62.50;;;;;;5058298;28;20454;-47
2022/07/08 05:55:57;;;;;;;3.43;1.60;;;17.10;62.40;;;;;;5063746;28;20441;-47
2022/07/08 05:58:23;;;;;;;3.87;2.10;;;17.10;62.70;;;;;;5044529;28;20994;-47
2022/07/08 06:00:50;;;;;;;5.47;1.90;;;17.20;61.80;;;;;;5060173;28;20498;-47
2022/07/08 06:03:17;;;;;;;3.93;2.17;;;17.20;61.20;;;;;;5064862;28;20552;-47
2022/07/08 06:05:44;;;;;;;7.23;1.40;;;17.30;60.70;;;;;;5064360;28;20446;-47
2022/07/08 06:08:10;;;;;;;2.93;1.47;;;17.40;60.40;;;;;;5061598;28;20923;-47
2022/07/08 06:10:38;;;;;;;5.53;1.80;;;17.40;59.20;;;;;;5063076;28;20830;-47
2022/07/08 06:13:05;;;;;;;4.30;2.00;;;17.40;59.50;;;;;;5061828;28;20481;-47
2022/07/08 06:15:31;;;;;;;4.10;1.23;;;17.40;59.40;;;;;;5040995;28;20469;-47
2022/07/08 06:17:58;;;;;;;3.70;1.33;;;17.50;59.00;;;;;;5040848;28;20463;-47
2022/07/08 06:20:25;;;;;;;2.63;1.70;;;17.50;58.10;;;;;;5046440;28;21054;-47
2022/07/08 06:22:52;;;;;;;2.40;1.57;;;17.50;58.40;;;;;;5056171;28;20454;-47
2022/07/08 06:25:19;;;;;;;3.50;1.47;;;17.50;58.20;;;;;;5063060;28;20453;-47
2022/07/08 06:27:46;;;;;;;4.03;1.70;;;17.50;57.90;;;;;;5062576;28;20464;-47
2022/07/08 06:30:13;;;;;;;3.97;2.10;;;17.50;58.80;;;;;;5044109;28;20519;-47
2022/07/08 06:32:40;;;;;;;1.73;1.63;;;17.60;58.00;;;;;;5042240;28;20458;-47
2022/07/08 06:35:08;;;;;;;3.20;1.50;;;17.50;58.50;;;;;;5060988;28;20450;-47
2022/07/08 06:37:34;;;;;;;6.20;2.57;;;17.60;58.50;;;;;;5059503;28;20457;-47
2022/07/08 06:40:02;;;;;;;3.40;1.60;;;17.60;58.70;;;;;;5055114;28;20486;-47
2022/07/08 06:42:29;;;;;;;4.87;1.70;;;17.60;58.10;;;;;;5057213;28;20994;-47
2022/07/08 06:44:56;;;;;;;3.57;1.60;;;17.70;58.00;;;;;;5060089;28;20446;-47
2022/07/08 06:47:22;;;;;;;6.00;2.20;;;17.70;57.90;;;;;;5042384;28;20458;-47
2022/07/08 06:49:50;;;;;;;5.17;2.03;;;17.70;58.20;;;;;;5038308;28;20467;-47
2022/07/08 06:52:17;;;;;;;9.03;1.80;;;17.70;57.70;;;;;;5060094;28;20468;-46
2022/07/08 06:54:45;;;;;;;5.23;1.90;;;17.70;58.10;;;;;;5056922;28;20819;-46
2022/07/08 06:57:11;;;;;;;3.43;1.50;;;17.70;57.80;;;;;;5057387;28;20477;-46
2022/07/08 06:59:39;;;;;;;7.23;2.10;;;17.80;57.90;;;;;;5054423;28;20513;-47
2022/07/08 07:02:26;;;;;;;3.37;1.63;;;17.80;58.10;;;;;;5047543;28;20461;-46
2022/07/08 07:04:53;;;;;;;3.37;1.70;;;17.80;58.30;;;;;;5063088;28;20530;-46
2022/07/08 07:07:20;;;;;;;2.80;1.40;;;17.90;59.00;;;;;;5065857;28;20444;-46
2022/07/08 07:09:47;;;;;;;4.93;1.70;;;18.10;57.40;;;;;;5056616;28;20613;-47
2022/07/08 07:12:17;;;;;;;8.30;2.07;;;18.20;56.90;;;;;;5055712;28;20833;-46
2022/07/08 07:14:44;;;;;;;4.23;2.07;;;18.20;57.20;;;;;;5053776;28;20512;-46
2022/07/08 07:17:11;;;;;;;5.73;1.90;;;18.30;57.60;;;;;;5051501;28;21172;-46
2022/07/08 07:19:38;;;;;;;4.37;1.90;;;18.30;56.60;;;;;;5037309;28;20522;-46
2022/07/08 07:22:05;;;;;;;4.30;1.60;;;18.40;56.40;;;;;;5052157;28;20451;-46
2022/07/08 07:24:31;;;;;;;4.03;1.60;;;18.40;56.60;;;;;;5060831;28;20461;-46
2022/07/08 07:26:58;;;;;;;3.73;2.53;;;18.30;57.10;;;;;;5057310;28;20454;-46
2022/07/08 07:29:25;;;;;;;3.53;2.00;;;18.30;56.90;;;;;;5061934;28;20461;-47
2022/07/08 07:31:51;;;;;;;4.30;1.83;;;18.30;57.30;;;;;;5063895;28;20462;-46
2022/07/08 07:34:18;;;;;;;8.17;1.67;;;18.30;58.00;;;;;;5054020;28;20512;-46
2022/07/08 07:36:45;;;;;;;4.37;1.93;;;18.30;57.40;;;;;;5043687;28;20646;-46
2022/07/08 07:39:12;;;;;;;5.93;2.40;;;18.40;57.40;;;;;;5063738;28;20456;-46
2022/07/08 07:41:39;;;;;;;5.90;2.50;;;18.30;57.50;;;;;;5044622;28;20489;-48
2022/07/08 07:44:06;;;;;;;3.53;2.10;;;18.30;56.50;;;;;;5057358;28;20458;-46
2022/07/08 07:46:33;;;;;;;6.60;2.10;;;18.30;56.60;;;;;;5039169;28;21130;-46
2022/07/08 07:49:00;;;;;;;2.23;1.60;;;18.30;56.50;;;;;;5051827;28;20449;-46
2022/07/08 07:51:27;;;;;;;4.60;2.00;;;18.30;56.60;;;;;;5060300;28;20471;-46
2022/07/08 07:53:54;;;;;;;3.30;1.60;;;18.30;57.10;;;;;;5043443;28;20503;-46
2022/07/08 07:56:21;;;;;;;4.93;2.33;;;18.30;56.40;;;;;;5051711;28;20477;-46
2022/07/08 07:58:48;;;;;;;3.43;2.07;;;18.30;56.40;;;;;;5056877;28;20476;-46
2022/07/08 08:01:15;;;;;;;4.90;1.70;;;18.30;56.60;;;;;;5038443;28;20489;-47
2022/07/08 08:03:42;;;;;;;1.97;1.87;;;18.30;56.50;;;;;;5060919;28;21019;-46
2022/07/08 08:06:09;;;;;;;2.27;1.70;;;18.40;56.30;;;;;;5054003;28;20449;-46
2022/07/08 08:08:36;;;;;;;7.47;2.00;;;18.40;56.10;;;;;;5059498;28;20489;-46
2022/07/08 08:11:03;;;;;;;4.83;1.87;;;18.40;56.00;;;;;;5065638;28;20499;-47
2022/07/08 08:13:30;;;;;;;7.07;2.40;;;18.40;56.00;;;;;;5047507;28;20467;-46
2022/07/08 08:15:57;;;;;;;2.40;2.10;;;18.50;56.00;;;;;;5061959;28;20526;-46
2022/07/08 08:18:23;;;;;;;5.67;1.93;;;18.50;56.60;;;;;;5062884;28;20900;-46
2022/07/08 08:20:51;;;;;;;5.47;1.80;;;18.50;55.50;;;;;;5061343;28;20907;-47
2022/07/08 08:23:18;;;;;;;2.90;1.97;;;18.50;55.70;;;;;;5065726;28;20455;-46
2022/07/08 08:25:49;;;;;;;1.97;1.87;;;18.60;55.10;;;;;;5048644;28;20454;-46
2022/07/08 08:28:16;;;;;;;4.87;1.80;;;18.60;55.50;;;;;;5065142;28;20458;-46
2022/07/08 08:30:42;;;;;;;4.17;2.17;;;18.70;55.80;;;;;;5047909;28;20458;-46
2022/07/08 08:33:09;;;;;;;4.03;2.20;;;18.70;55.70;;;;;;5050459;28;20538;-46
2022/07/08 08:35:36;;;;;;;2.90;2.07;;;18.80;55.70;;;;;;5064603;28;20975;-47
2022/07/08 08:38:03;;;;;;;4.70;2.33;;;19.00;55.40;;;;;;5066028;28;20453;-46
2022/07/08 08:40:31;;;;;;;2.80;2.37;;;19.10;54.80;;;;;;5044032;28;20496;-46
2022/07/08 08:42:58;;;;;;;2.83;1.63;;;19.20;54.20;;;;;;5060742;28;20458;-46
2022/07/08 08:45:33;;;;;;;1.83;1.37;;;19.20;53.80;;;;;;5044871;28;20450;-47
2022/07/08 08:48:10;;;;;;;1.90;1.80;;;19.30;53.60;;;;;;5049969;28;20453;-46
2022/07/08 08:50:53;;;;;;;7.23;1.60;;;19.40;54.30;;;;;;5064562;28;20468;-47
2022/07/08 08:53:33;;;;;;;1.80;1.70;;;19.60;53.00;;;;;;5063937;28;20716;-46
2022/07/08 08:56:00;;;;;;;3.10;1.57;;;19.80;52.50;;;;;;5061113;28;20475;-46
2022/07/08 08:58:27;;;;;;;4.03;1.67;;;20.00;52.30;;;;;;5047838;28;20494;-46
2022/07/08 09:00:54;;;;;;;3.10;1.40;;;20.30;52.50;;;;;;5048040;28;20493;-47
2022/07/08 09:03:21;;;;;;;6.33;2.33;;;20.50;50.90;;;;;;5042476;28;20438;-46
2022/07/08 09:05:49;;;;;;;3.80;1.63;;;20.90;49.30;;;;;;5058488;28;20637;-46
2022/07/08 09:08:16;;;;;;;6.00;1.80;;;21.20;49.20;;;;;;5062857;28;20458;-46
2022/07/08 09:10:42;;;;;;;6.60;2.57;;;21.40;49.00;;;;;;5043696;28;20453;-46
2022/07/08 09:13:16;;;;;;;2.00;1.53;;;21.60;48.90;;;;;;5064848;28;20473;-46
2022/07/08 09:15:45;;;;;;;4.33;2.03;;;21.80;48.50;;;;;;5064432;28;21069;-47
2022/07/08 09:18:13;;;;;;;7.03;1.40;;;22.10;48.70;;;;;;5040103;28;20465;-47
2022/07/08 09:20:51;;;;;;;2.90;1.57;;;22.30;47.70;;;;;;5060756;28;20562;-47
2022/07/08 09:23:19;;;;;;;3.73;1.97;;;22.50;47.00;;;;;;5059039;28;21005;-48
2022/07/08 09:25:48;;;;;;;1.80;1.60;;;22.70;46.70;;;;;;5043130;28;20441;-47
2022/07/08 09:28:26;;;;;;;4.70;1.80;;;22.90;46.60;;;;;;5047544;28;20448;-47
2022/07/08 09:30:55;;;;;;;4.63;1.80;;;23.10;46.10;;;;;;5042799;28;20526;-48
2022/07/08 09:33:25;;;;;;;8.70;1.90;;;23.40;46.80;;;;;;5057624;28;20658;-47
2022/07/08 09:35:53;;;;;;;3.00;2.13;;;23.50;46.20;;;;;;5043805;28;20442;-47
2022/07/08 09:38:20;;;;;;;3.73;1.97;;;23.60;45.80;;;;;;5063942;28;20456;-47
2022/07/08 09:41:15;;;;;;;8.37;1.90;;;23.70;45.70;;;;;;5061106;28;20938;-47
2022/07/08 09:43:49;;;;;;;6.00;1.67;;;23.50;45.70;;;;;;5060920;28;20470;-47
2022/07/08 09:46:16;;;;;;;3.27;1.57;;;23.40;45.50;;;;;;5062814;28;20469;-47
2022/07/08 09:48:43;;;;;;;5.43;2.20;;;23.20;46.00;;;;;;5047045;28;20457;-47
2022/07/08 09:51:11;;;;;;;6.43;2.33;;;23.00;46.40;;;;;;5059824;28;20441;-48
2022/07/08 09:53:41;;;;;;;2.17;1.60;;;22.70;47.10;;;;;;5063785;28;20457;-47
2022/07/08 09:56:08;;;;;;;4.30;1.43;;;22.50;47.10;;;;;;5058544;28;20696;-48
2022/07/08 09:58:36;;;;;;;2.40;1.70;;;22.30;47.60;;;;;;5061305;28;20493;-48
2022/07/08 10:01:04;;;;;;;3.90;2.07;;;22.40;47.50;;;;;;5055199;28;20489;-47
2022/07/08 10:03:32;;;;;;;5.53;1.80;;;22.60;46.50;;;;;;5064653;28;20576;-48
2022/07/08 10:06:01;;;;;;;6.87;1.83;;;22.90;46.30;;;;;;5049941;28;20498;-47
2022/07/08 10:08:28;;;;;;;4.43;2.00;;;23.20;45.80;;;;;;5051925;28;20487;-47
2022/07/08 10:10:57;;;;;;;2.97;1.90;;;23.50;45.50;;;;;;5055474;28;20464;-47
2022/07/08 10:13:25;;;;;;;4.93;2.10;;;23.80;44.50;;;;;;5052608;28;20951;-47
2022/07/08 10:15:57;;;;;;;2.40;1.60;;;24.20;44.10;;;;;;5050909;28;20461;-47
2022/07/08 10:18:34;;;;;;;4.00;1.67;;;24.70;43.50;;;;;;5060657;28;20466;-47
2022/07/08 10:21:04;;;;;;;2.50;1.43;;;25.00;43.10;;;;;;5045915;28;21059;-47
2022/07/08 10:23:44;;;;;;;3.40;1.40;;;25.20;42.00;;;;;;5058590;28;20831;-48
2022/07/08 10:26:12;;;;;;;3.83;1.83;;;25.40;41.80;;;;;;5059152;28;20978;-48
2022/07/08 10:28:44;;;;;;;4.53;1.87;;;25.30;41.50;;;;;;5058019;28;20571;-47
2022/07/08 10:31:20;;;;;;;2.03;1.87;;;25.20;42.00;;;;;;5052651;28;20549;-48
2022/07/08 10:33:48;;;;;;;3.70;1.90;;;25.00;41.90;;;;;;5056472;28;20496;-48
2022/07/08 10:36:20;;;;;;;6.20;2.17;;;24.90;42.30;;;;;;5041300;28;20992;-48
2022/07/08 10:38:47;;;;;;;4.63;2.00;;;24.90;42.50;;;;;;5044622;28;20943;-48
2022/07/08 10:41:26;;;;;;;3.23;1.60;;;25.00;42.40;;;;;;5062076;28;20531;-48
2022/07/08 10:44:00;;;;;;;2.30;1.57;;;25.10;42.30;;;;;;5060295;28;20457;-48
2022/07/08 10:46:28;;;;;;;2.77;1.90;;;25.10;41.60;;;;;;5056335;28;20514;-47
2022/07/08 10:48:57;;;;;;;1.83;1.40;;;25.00;42.00;;;;;;5059459;28;20461;-48
2022/07/08 10:51:24;;;;;;;4.20;1.60;;;24.90;42.60;;;;;;5045317;28;20461;-48
2022/07/08 10:54:08;;;;;;;3.00;1.83;;;24.70;42.80;;;;;;5045454;28;20460;-48
2022/07/08 10:56:50;;;;;;;4.80;1.90;;;24.50;42.90;;;;;;5055691;28;20854;-48
2022/07/08 10:59:28;;;;;;;2.10;1.90;;;24.30;43.70;;;;;;5050712;28;20460;-47
2022/07/08 11:02:01;;;;;;;5.17;1.70;;;24.00;43.70;;;;;;5058854;28;20497;-48
2022/07/08 11:04:34;;;;;;;4.50;1.93;;;23.80;43.90;;;;;;5062736;28;20460;-47
2022/07/08 11:07:37;;;;;;;5.20;1.93;;;23.60;44.60;;;;;;5059494;28;20531;-48
2022/07/08 11:10:07;;;;;;;6.80;1.80;;;23.40;44.80;;;;;;5059578;28;20548;-47
2022/07/08 11:12:39;;;;;;;6.63;1.83;;;23.00;45.30;;;;;;5060199;28;20629;-47
2022/07/08 11:15:11;;;;;;;3.00;1.50;;;22.90;45.70;;;;;;5062075;28;20557;-47
2022/07/08 11:17:40;;;;;;;3.53;2.10;;;22.70;45.70;;;;;;5061806;28;21048;-47
2022/07/08 11:20:09;;;;;;;3.63;1.53;;;22.70;46.10;;;;;;5029620;28;20465;-47
2022/07/08 11:22:40;;;;;;;3.80;1.90;;;22.60;46.20;;;;;;5057920;28;20486;-47
2022/07/08 11:25:13;;;;;;;3.17;1.57;;;22.50;46.30;;;;;;5058011;28;20456;-47
2022/07/08 11:27:41;;;;;;;3.20;1.90;;;22.50;45.90;;;;;;5040655;28;20515;-47
2022/07/08 11:30:11;;;;;;;2.33;1.70;;;22.30;46.40;;;;;;5058815;28;20645;-46
2022/07/08 11:32:39;;;;;;;4.53;2.20;;;22.30;47.20;;;;;;5058330;28;20472;-47
2022/07/08 11:35:07;;;;;;;1.70;1.57;;;22.40;46.70;;;;;;5040579;28;20834;-46
2022/07/08 11:37:44;;;;;;;3.77;1.67;;;22.30;46.90;;;;;;5054074;28;20544;-46
2022/07/08 11:40:12;;;;;;;5.00;2.20;;;22.20;47.10;;;;;;5062027;28;20815;-46
2022/07/08 11:42:40;;;;;;;3.30;2.00;;;22.20;47.30;;;;;;5059660;28;20525;-46
2022/07/08 11:45:10;;;;;;;9.10;1.90;;;22.10;47.00;;;;;;5060807;28;20480;-46
2022/07/08 11:47:38;;;;;;;2.00;1.80;;;22.10;47.10;;;;;;5062231;28;20486;-47
2022/07/08 11:50:08;;;;;;;4.33;2.20;;;22.20;47.30;;;;;;5066154;28;20591;-46
2022/07/08 11:52:35;;;;;;;4.10;2.27;;;22.20;47.30;;;;;;5063119;28;20460;-46
2022/07/08 11:55:05;;;;;;;5.47;2.43;;;22.30;47.30;;;;;;5065513;28;20798;-46
2022/07/08 11:57:37;;;;;;;2.03;1.83;;;22.30;47.00;;;;;;5057361;28;20460;-46
2022/07/08 12:00:05;;;;;;;3.90;2.03;;;22.40;46.50;;;;;;5040037;28;21030;-47
2022/07/08 12:02:36;;;;;;;3.73;3.00;;;22.50;46.90;;;;;;5061845;28;20505;-46
2022/07/08 12:05:08;;;;;;;3.50;2.20;;;22.50;47.30;;;;;;5047168;28;20527;-46
2022/07/08 12:07:37;;;;;;;3.73;2.20;;;22.60;47.10;;;;;;5058242;28;20469;-46
2022/07/08 12:10:05;;;;;;;4.40;1.90;;;22.70;47.00;;;;;;5046953;28;20458;-46
2022/07/08 12:12:34;;;;;;;2.53;1.60;;;22.70;46.80;;;;;;5062789;28;20514;-46
2022/07/08 12:15:15;;;;;;;3.43;1.83;;;22.70;46.70;;;;;;5064685;28;20489;-46
2022/07/08 12:17:42;;;;;;;4.13;1.83;;;22.70;47.50;;;;;;5063068;28;20894;-46
2022/07/08 12:20:09;;;;;;;10.17;2.10;;;22.60;47.20;;;;;;5048317;28;20460;-46
2022/07/08 12:22:47;;;;;;;3.13;1.80;;;22.70;47.30;;;;;;5050982;28;20530;-46
2022/07/08 12:25:18;;;;;;;3.20;1.90;;;22.80;46.30;;;;;;5060861;28;20544;-46
2022/07/08 12:28:01;;;;;;;6.20;2.63;;;22.90;46.40;;;;;;5046915;28;20457;-46
2022/07/08 12:30:30;;;;;;;2.63;2.40;;;22.90;45.80;;;;;;5061603;28;21020;-46
2022/07/08 12:33:02;;;;;;;3.47;2.00;;;23.00;45.40;;;;;;5062367;28;21029;-46
2022/07/08 12:35:46;;;;;;;3.10;1.80;;;22.90;45.90;;;;;;5047935;28;20461;-46
2022/07/08 12:38:13;;;;;;;2.50;1.57;;;22.90;46.10;;;;;;5063990;28;20540;-47
2022/07/08 12:40:43;;;;;;;1.93;1.73;;;22.90;45.70;;;;;;5065439;28;21073;-46
2022/07/08 12:43:11;;;;;;;2.07;1.63;;;23.00;45.10;;;;;;5060871;28;20580;-46
2022/07/08 12:45:39;;;;;;;3.03;1.57;;;23.00;45.20;;;;;;5041595;28;20504;-46
2022/07/08 12:48:06;;;;;;;2.80;2.40;;;23.10;44.90;;;;;;5060715;28;20496;-46
2022/07/08 12:50:34;;;;;;;2.20;1.60;;;23.10;44.90;;;;;;5058272;28;20450;-47
2022/07/08 12:53:03;;;;;;;2.67;1.50;;;23.10;45.10;;;;;;5062630;28;20502;-47
2022/07/08 12:55:30;;;;;;;3.27;2.00;;;23.20;44.80;;;;;;5061142;28;20489;-47